Time;durP1;ratioP1;P1;durP2;ratioP2;P2;SDS_P1;SDS_P2;PMS_P1;PMS_P2;Temp;Humidity;BMP_temperature;BMP_pressure;BME280_temperature;BME280_humidity;BME280_pressure;Samples;Min_cycle;Max_cycle;Signal;HPM_P1;HPM_P2
2020/12/06 00:00:06;;;;;;;34.00;26.97;;;5.10;99.90;;;;;;4993027;28;20458;-86
2020/12/06 00:02:33;;;;;;;29.27;25.07;;;5.10;99.90;;;;;;4992861;28;20463;-88
2020/12/06 00:04:59;;;;;;;34.60;26.10;;;5.10;99.90;;;;;;4992868;28;20450;-87
2020/12/06 00:07:25;;;;;;;34.03;27.40;;;5.00;99.90;;;;;;4992932;28;20447;-88
2020/12/06 00:09:51;;;;;;;32.33;27.87;;;5.10;99.90;;;;;;4992771;28;20483;-87
2020/12/06 00:12:18;;;;;;;36.37;26.97;;;5.10;99.90;;;;;;4991307;28;20453;-87
2020/12/06 00:14:44;;;;;;;34.93;27.60;;;5.10;99.90;;;;;;4993507;28;20962;-87
2020/12/06 00:17:10;;;;;;;29.73;25.07;;;5.10;99.90;;;;;;4993099;28;20443;-87
2020/12/06 00:19:37;;;;;;;33.23;27.80;;;5.10;99.90;;;;;;4992446;28;20493;-87
2020/12/06 00:22:03;;;;;;;32.20;26.00;;;5.10;99.90;;;;;;4993001;28;20435;-87
2020/12/06 00:24:29;;;;;;;36.87;28.60;;;5.10;99.90;;;;;;4992249;28;20467;-87
2020/12/06 00:26:57;;;;;;;36.60;28.13;;;5.10;99.90;;;;;;4993155;28;20990;-87
2020/12/06 00:29:23;;;;;;;30.50;24.67;;;5.10;99.90;;;;;;4994503;28;20490;-86
2020/12/06 00:31:49;;;;;;;38.53;28.30;;;5.10;99.90;;;;;;4995268;28;20528;-86
2020/12/06 00:34:15;;;;;;;38.57;27.67;;;5.10;99.90;;;;;;4993710;28;20443;-86
2020/12/06 00:36:42;;;;;;;30.77;27.20;;;5.10;99.90;;;;;;4993247;28;20451;-87
2020/12/06 00:39:08;;;;;;;69.33;52.67;;;5.10;99.90;;;;;;4992811;28;20816;-87
2020/12/06 00:41:34;;;;;;;46.10;35.17;;;5.10;99.90;;;;;;4992789;28;20867;-87
2020/12/06 00:44:01;;;;;;;38.20;28.70;;;5.10;99.90;;;;;;4992598;28;20447;-87
2020/12/06 00:46:27;;;;;;;36.27;28.17;;;5.10;99.90;;;;;;4992296;28;20470;-87
2020/12/06 00:48:53;;;;;;;33.23;26.80;;;5.10;99.90;;;;;;4990594;28;20482;-87
2020/12/06 00:51:19;;;;;;;31.90;25.60;;;5.10;99.90;;;;;;4991971;28;20446;-87
2020/12/06 00:53:46;;;;;;;31.73;26.30;;;5.10;99.90;;;;;;4992381;28;20442;-87
2020/12/06 00:56:17;;;;;;;32.87;27.20;;;5.10;99.90;;;;;;4991791;28;20451;-87
2020/12/06 00:58:43;;;;;;;36.53;26.77;;;5.10;99.90;;;;;;4991323;28;20590;-88
2020/12/06 01:01:09;;;;;;;38.10;29.00;;;5.10;99.90;;;;;;4992425;28;20444;-86
2020/12/06 01:03:35;;;;;;;34.70;26.50;;;5.10;99.90;;;;;;4992728;28;20474;-87
2020/12/06 01:06:01;;;;;;;28.57;23.97;;;5.10;99.90;;;;;;4991739;28;20513;-88
2020/12/06 01:08:28;;;;;;;37.73;27.87;;;5.10;99.90;;;;;;4991923;28;20493;-88
2020/12/06 01:10:54;;;;;;;31.97;24.73;;;5.10;99.90;;;;;;4994732;28;20451;-89
2020/12/06 01:13:21;;;;;;;31.90;25.93;;;5.00;99.90;;;;;;4992171;28;20439;-88
2020/12/06 01:15:47;;;;;;;34.30;27.50;;;5.00;99.90;;;;;;4991809;28;20439;-88
2020/12/06 01:18:13;;;;;;;31.90;26.40;;;5.00;99.90;;;;;;5000147;28;20466;-87
2020/12/06 01:20:39;;;;;;;37.80;27.70;;;5.00;99.90;;;;;;5015119;28;20471;-88
2020/12/06 01:23:05;;;;;;;40.37;27.27;;;5.00;99.90;;;;;;4993909;28;20451;-88
2020/12/06 01:25:31;;;;;;;35.03;26.87;;;5.00;99.90;;;;;;4991854;28;20446;-87
2020/12/06 01:27:58;;;;;;;43.30;28.93;;;5.00;99.90;;;;;;4991958;28;20451;-87
2020/12/06 01:30:24;;;;;;;38.93;28.50;;;5.00;99.90;;;;;;4993911;28;20470;-88
2020/12/06 01:32:50;;;;;;;40.10;29.07;;;5.00;99.90;;;;;;4991946;28;20494;-88
2020/12/06 01:35:17;;;;;;;42.13;29.63;;;5.00;99.90;;;;;;4991655;28;20450;-88
2020/12/06 01:37:43;;;;;;;44.60;30.20;;;5.00;99.90;;;;;;4991853;28;20525;-87
2020/12/06 01:40:09;;;;;;;43.17;31.70;;;5.00;99.90;;;;;;4990130;28;20976;-88
2020/12/06 01:42:35;;;;;;;42.23;29.53;;;5.00;99.90;;;;;;4991638;28;20458;-88
2020/12/06 01:45:03;;;;;;;34.87;29.00;;;5.00;99.90;;;;;;4991680;28;20490;-87
2020/12/06 01:47:29;;;;;;;37.43;27.80;;;5.00;99.90;;;;;;4992055;28;20477;-88
2020/12/06 01:49:56;;;;;;;33.87;28.60;;;5.00;99.90;;;;;;4991583;28;20479;-88
2020/12/06 01:52:23;;;;;;;34.87;26.47;;;4.90;99.90;;;;;;4991670;28;20812;-88
2020/12/06 01:54:50;;;;;;;39.10;30.13;;;4.90;99.90;;;;;;4991506;28;20455;-88
2020/12/06 01:57:16;;;;;;;39.50;29.77;;;4.90;99.90;;;;;;4991674;28;20510;-87
2020/12/06 01:59:42;;;;;;;39.20;30.80;;;4.90;99.90;;;;;;4991584;28;20541;-87
2020/12/06 02:02:09;;;;;;;42.40;28.53;;;4.90;99.90;;;;;;4991637;28;20509;-88
2020/12/06 02:04:35;;;;;;;36.70;28.80;;;4.90;99.90;;;;;;4991363;28;20842;-88
2020/12/06 02:07:02;;;;;;;35.73;28.10;;;4.90;99.90;;;;;;4991269;28;20490;-88
2020/12/06 02:09:30;;;;;;;38.90;28.60;;;4.90;99.90;;;;;;4991409;28;20483;-88
2020/12/06 02:11:56;;;;;;;43.67;30.70;;;4.90;99.90;;;;;;4989854;28;20501;-86
2020/12/06 02:14:23;;;;;;;42.20;30.87;;;4.90;99.90;;;;;;4991466;28;20450;-86
2020/12/06 02:16:53;;;;;;;42.33;30.53;;;4.90;99.90;;;;;;4991147;28;20447;-87
2020/12/06 02:19:20;;;;;;;35.30;27.73;;;4.90;99.90;;;;;;4993220;28;20467;-87
2020/12/06 02:21:47;;;;;;;41.30;28.27;;;4.90;99.90;;;;;;4995311;28;20968;-87
2020/12/06 02:24:16;;;;;;;44.97;31.13;;;4.90;99.90;;;;;;4995598;28;20434;-86
2020/12/06 02:26:44;;;;;;;37.60;28.67;;;4.90;99.90;;;;;;4993344;28;20459;-87
2020/12/06 02:29:10;;;;;;;36.37;29.13;;;4.90;99.90;;;;;;4993743;28;20497;-88
2020/12/06 02:31:37;;;;;;;36.37;28.87;;;4.80;99.90;;;;;;4996335;28;20510;-87
2020/12/06 02:34:04;;;;;;;37.27;27.70;;;4.80;99.90;;;;;;4998600;28;20486;-87
2020/12/06 02:36:31;;;;;;;41.03;30.80;;;4.80;99.90;;;;;;4996110;28;20458;-87
2020/12/06 02:38:58;;;;;;;34.80;29.53;;;4.80;99.90;;;;;;4996846;28;20475;-87
2020/12/06 02:41:34;;;;;;;40.63;30.20;;;4.80;99.90;;;;;;4994600;28;20944;-88
2020/12/06 02:44:00;;;;;;;37.37;28.60;;;4.80;99.90;;;;;;4996609;28;20442;-87
2020/12/06 02:46:27;;;;;;;37.90;27.80;;;4.80;99.90;;;;;;4996583;28;20451;-88
2020/12/06 02:48:53;;;;;;;38.80;28.47;;;4.80;99.90;;;;;;4994603;28;20487;-88
2020/12/06 02:51:19;;;;;;;34.87;28.30;;;4.80;99.90;;;;;;4994233;28;20439;-87
2020/12/06 02:53:45;;;;;;;37.23;28.63;;;4.80;99.90;;;;;;4994775;28;20454;-87
2020/12/06 02:56:12;;;;;;;35.73;28.07;;;4.80;99.90;;;;;;4992312;28;20454;-88
2020/12/06 02:58:38;;;;;;;41.20;29.70;;;4.80;99.90;;;;;;4994375;28;20463;-88
2020/12/06 03:01:04;;;;;;;34.23;27.20;;;4.80;99.90;;;;;;4994100;28;20450;-87
2020/12/06 03:03:30;;;;;;;38.17;28.00;;;4.80;99.90;;;;;;4994448;28;20447;-88
2020/12/06 03:05:56;;;;;;;39.80;30.00;;;4.80;99.90;;;;;;4993953;28;20535;-88
2020/12/06 03:08:23;;;;;;;37.80;28.93;;;4.80;99.90;;;;;;4993720;28;20484;-88
2020/12/06 03:10:49;;;;;;;40.60;30.33;;;4.80;99.90;;;;;;4994429;28;20456;-88
2020/12/06 03:13:16;;;;;;;38.90;29.97;;;4.80;99.90;;;;;;4994130;28;20502;-88
2020/12/06 03:15:42;;;;;;;44.43;30.53;;;4.80;99.90;;;;;;4993993;28;20443;-88
2020/12/06 03:18:08;;;;;;;43.27;31.30;;;4.80;99.90;;;;;;4993972;28;20452;-88
2020/12/06 03:20:34;;;;;;;43.70;30.17;;;4.80;99.90;;;;;;4994330;28;20439;-88
2020/12/06 03:23:00;;;;;;;41.53;29.30;;;4.80;99.90;;;;;;4994104;28;20493;-88
2020/12/06 03:25:26;;;;;;;41.37;29.07;;;4.90;99.90;;;;;;4993893;28;20478;-87
2020/12/06 03:27:53;;;;;;;43.67;29.37;;;4.80;99.90;;;;;;4994065;28;20443;-87
2020/12/06 03:30:20;;;;;;;45.73;31.70;;;4.80;99.90;;;;;;4993814;28;20490;-87
2020/12/06 03:32:46;;;;;;;51.20;30.60;;;4.80;99.90;;;;;;5007055;28;20435;-88
2020/12/06 03:35:12;;;;;;;46.57;29.73;;;4.80;99.90;;;;;;5016242;28;20447;-88
2020/12/06 03:37:38;;;;;;;44.10;28.63;;;4.80;99.90;;;;;;4993681;28;20971;-87
2020/12/06 03:40:04;;;;;;;48.40;32.47;;;4.80;99.90;;;;;;4993660;28;21047;-87
2020/12/06 03:42:30;;;;;;;48.13;29.57;;;4.70;99.90;;;;;;4993857;28;20451;-86
2020/12/06 03:44:57;;;;;;;51.27;30.83;;;4.70;99.90;;;;;;4993733;28;20443;-86
2020/12/06 03:47:24;;;;;;;55.70;32.53;;;4.70;99.90;;;;;;4993225;28;20505;-86
2020/12/06 03:49:50;;;;;;;45.00;30.93;;;4.70;99.90;;;;;;4994059;28;20486;-87
2020/12/06 03:52:16;;;;;;;55.57;32.67;;;4.70;99.90;;;;;;4993235;28;20822;-86
2020/12/06 03:54:42;;;;;;;54.23;32.97;;;4.70;99.90;;;;;;4993177;28;20944;-87
2020/12/06 03:57:08;;;;;;;55.20;31.80;;;4.70;99.90;;;;;;4993396;28;20455;-87
2020/12/06 03:59:35;;;;;;;49.20;32.57;;;4.70;99.90;;;;;;4993107;28;21010;-87
2020/12/06 04:02:01;;;;;;;54.60;31.93;;;4.70;99.90;;;;;;4997768;28;20826;-87
2020/12/06 04:04:28;;;;;;;52.80;31.10;;;4.70;99.90;;;;;;4993055;28;20945;-87
2020/12/06 04:06:54;;;;;;;54.27;30.93;;;4.70;99.90;;;;;;4993065;28;20450;-87
2020/12/06 04:09:20;;;;;;;57.37;32.27;;;4.70;99.90;;;;;;4992986;28;20486;-87
2020/12/06 04:11:46;;;;;;;57.07;32.00;;;4.60;99.90;;;;;;4992875;28;20455;-88
2020/12/06 04:14:12;;;;;;;52.30;32.93;;;4.70;99.90;;;;;;4993096;28;20454;-88
2020/12/06 04:16:38;;;;;;;58.90;34.23;;;4.60;99.90;;;;;;4992831;28;20974;-87
2020/12/06 04:19:04;;;;;;;55.27;34.20;;;4.60;99.90;;;;;;4993257;28;20496;-87
2020/12/06 04:21:31;;;;;;;50.83;32.07;;;4.60;99.90;;;;;;4992747;28;20454;-88
2020/12/06 04:23:57;;;;;;;50.50;31.37;;;4.60;99.90;;;;;;4993185;28;20443;-87
2020/12/06 04:26:24;;;;;;;52.60;31.13;;;4.60;99.90;;;;;;4992532;28;20618;-87
2020/12/06 04:28:50;;;;;;;52.20;30.50;;;4.60;99.90;;;;;;4992582;28;20992;-87
2020/12/06 04:31:16;;;;;;;52.93;31.10;;;4.60;99.90;;;;;;4992612;28;20465;-88
2020/12/06 04:33:42;;;;;;;56.87;32.30;;;4.60;99.90;;;;;;4992773;28;20447;-87
2020/12/06 04:36:09;;;;;;;49.10;30.87;;;4.60;99.90;;;;;;4992122;28;20503;-88
2020/12/06 04:38:36;;;;;;;53.60;33.50;;;4.60;99.90;;;;;;4993028;28;20467;-86
2020/12/06 04:41:02;;;;;;;52.33;31.17;;;4.60;99.90;;;;;;4994452;28;20451;-86
2020/12/06 04:43:29;;;;;;;51.90;32.53;;;4.70;99.90;;;;;;4994907;28;20483;-86
2020/12/06 04:45:56;;;;;;;52.90;33.73;;;4.70;99.90;;;;;;4996914;28;20451;-86
2020/12/06 04:48:33;;;;;;;50.60;34.20;;;4.70;99.90;;;;;;4995664;28;20463;-87
2020/12/06 04:51:05;;;;;;;50.30;32.20;;;4.70;99.90;;;;;;4996075;28;20447;-87
2020/12/06 04:53:43;;;;;;;49.30;31.50;;;4.70;99.90;;;;;;4991409;28;20438;-87
2020/12/06 04:56:12;;;;;;;51.80;31.73;;;4.70;99.90;;;;;;4992017;28;20462;-87
2020/12/06 04:58:39;;;;;;;55.20;33.37;;;4.70;99.90;;;;;;4992453;28;20471;-87
2020/12/06 05:01:05;;;;;;;50.83;31.80;;;4.70;99.90;;;;;;4992380;28;20483;-87
2020/12/06 05:03:36;;;;;;;50.33;30.60;;;4.70;99.90;;;;;;4992454;28;20431;-87
2020/12/06 05:06:05;;;;;;;47.80;30.10;;;4.70;99.90;;;;;;4992024;28;20528;-87
2020/12/06 05:08:36;;;;;;;52.77;31.60;;;4.70;99.90;;;;;;4992257;28;20546;-88
2020/12/06 05:11:03;;;;;;;48.93;31.60;;;4.70;99.90;;;;;;4992227;28;20543;-87
2020/12/06 05:13:29;;;;;;;47.73;31.70;;;4.60;99.90;;;;;;4992247;28;20450;-87
2020/12/06 05:15:55;;;;;;;52.77;30.30;;;4.60;99.90;;;;;;4996770;28;20457;-87
2020/12/06 05:18:23;;;;;;;49.93;28.47;;;4.60;99.90;;;;;;4991989;28;20479;-88
2020/12/06 05:20:51;;;;;;;44.20;28.57;;;4.60;99.90;;;;;;4992215;28;20537;-88
2020/12/06 05:23:17;;;;;;;59.03;35.63;;;4.70;99.90;;;;;;4992172;28;20497;-88
2020/12/06 05:25:45;;;;;;;49.93;32.60;;;4.70;99.90;;;;;;4991618;28;20462;-87
2020/12/06 05:28:11;;;;;;;52.40;34.40;;;4.60;99.90;;;;;;4991894;28;20447;-88
2020/12/06 05:30:39;;;;;;;55.53;33.47;;;4.70;99.90;;;;;;4991907;28;20490;-86
2020/12/06 05:33:06;;;;;;;55.10;32.70;;;4.70;99.90;;;;;;4992589;28;20439;-87
2020/12/06 05:35:32;;;;;;;56.93;33.13;;;4.60;99.90;;;;;;4991475;28;20459;-87
2020/12/06 05:37:58;;;;;;;56.63;31.83;;;4.60;99.90;;;;;;4992392;28;20439;-88
2020/12/06 05:40:24;;;;;;;52.57;32.27;;;4.60;99.90;;;;;;4991796;28;20459;-88
2020/12/06 05:42:51;;;;;;;56.57;32.90;;;4.60;99.90;;;;;;4992933;28;20450;-87
2020/12/06 05:45:18;;;;;;;50.00;33.70;;;4.60;99.90;;;;;;5001156;28;20435;-88
2020/12/06 05:47:46;;;;;;;49.70;31.87;;;4.60;99.90;;;;;;5015496;28;20443;-88
2020/12/06 05:50:12;;;;;;;46.40;28.97;;;4.60;99.90;;;;;;4991509;28;20487;-87
2020/12/06 05:52:38;;;;;;;47.63;28.63;;;4.60;99.90;;;;;;4992622;28;20446;-87
2020/12/06 05:55:05;;;;;;;52.20;32.73;;;4.60;99.90;;;;;;4995275;28;20447;-88
2020/12/06 05:57:31;;;;;;;48.77;30.93;;;4.60;99.90;;;;;;4995543;28;20453;-88
2020/12/06 06:00:00;;;;;;;47.07;29.27;;;4.60;99.90;;;;;;4993592;28;20478;-87
2020/12/06 06:02:27;;;;;;;46.20;27.37;;;4.60;99.90;;;;;;4995648;28;20435;-87
2020/12/06 06:05:01;;;;;;;55.63;31.63;;;4.70;99.90;;;;;;4995133;28;20455;-88
2020/12/06 06:07:30;;;;;;;50.30;31.50;;;4.60;99.90;;;;;;4995886;28;20442;-88
2020/12/06 06:10:00;;;;;;;50.60;34.03;;;4.70;99.90;;;;;;4993265;28;20485;-87
2020/12/06 06:12:30;;;;;;;49.20;28.80;;;4.70;99.90;;;;;;4995540;28;20439;-88
2020/12/06 06:15:00;;;;;;;49.60;31.10;;;4.70;99.90;;;;;;4991277;28;20454;-88
2020/12/06 06:17:27;;;;;;;43.53;28.77;;;4.70;99.90;;;;;;4993643;28;20469;-87
2020/12/06 06:19:53;;;;;;;54.97;30.33;;;4.70;99.90;;;;;;4995366;28;20720;-87
2020/12/06 06:22:30;;;;;;;47.00;29.17;;;4.60;99.90;;;;;;4995424;28;20442;-89
2020/12/06 06:24:59;;;;;;;48.90;28.67;;;4.60;99.90;;;;;;4994871;28;20448;-88
2020/12/06 06:27:25;;;;;;;49.97;29.03;;;4.60;99.90;;;;;;4995475;28;20439;-87
2020/12/06 06:29:51;;;;;;;52.07;33.13;;;4.60;99.90;;;;;;4998914;28;20486;-87
2020/12/06 06:32:22;;;;;;;51.67;32.07;;;4.60;99.90;;;;;;4995025;28;20528;-88
2020/12/06 06:34:49;;;;;;;50.27;32.10;;;4.50;99.90;;;;;;4994626;28;20944;-88
2020/12/06 06:37:16;;;;;;;52.30;30.33;;;4.60;99.90;;;;;;4995212;28;20993;-88
2020/12/06 06:39:43;;;;;;;48.93;30.40;;;4.60;99.90;;;;;;4992897;28;20469;-87
2020/12/06 06:42:11;;;;;;;47.10;31.40;;;4.60;99.90;;;;;;4994770;28;20443;-87
2020/12/06 06:44:39;;;;;;;54.00;32.10;;;4.60;99.90;;;;;;4994603;28;20457;-87
2020/12/06 06:47:07;;;;;;;51.47;28.97;;;4.60;99.90;;;;;;4995086;28;20762;-86
2020/12/06 06:52:26;;;;;;;52.70;30.43;;;4.60;99.90;;;;;;5099575;27;791457;-85
2020/12/06 06:54:54;;;;;;;47.50;29.00;;;4.50;99.90;;;;;;5100666;28;20691;-87
2020/12/06 06:57:22;;;;;;;50.13;30.90;;;4.50;99.90;;;;;;5099264;28;20448;-88
2020/12/06 06:59:51;;;;;;;54.63;31.80;;;4.60;99.90;;;;;;5091846;28;20512;-87
2020/12/06 07:02:25;;;;;;;50.10;30.70;;;4.60;99.90;;;;;;5088753;28;20442;-88
2020/12/06 07:04:51;;;;;;;50.43;29.40;;;4.60;99.90;;;;;;5088027;28;20507;-87
2020/12/06 07:10:12;;;;;;;44.93;28.87;;;4.60;99.90;;;;;;5150755;27;20934;-86
2020/12/06 07:12:40;;;;;;;47.63;30.90;;;4.60;99.90;;;;;;5137857;27;20467;-86
2020/12/06 07:15:08;;;;;;;45.57;28.27;;;4.60;99.90;;;;;;5141161;27;20435;-86
2020/12/06 07:17:34;;;;;;;49.13;30.97;;;4.60;99.90;;;;;;5139725;27;20513;-87
2020/12/06 07:20:02;;;;;;;48.93;28.47;;;4.60;99.90;;;;;;5139543;27;20463;-86
2020/12/06 07:22:29;;;;;;;45.40;29.37;;;4.60;99.90;;;;;;5137440;27;20444;-87
2020/12/06 07:24:55;;;;;;;52.40;30.73;;;4.60;99.90;;;;;;5138271;27;20983;-88
2020/12/06 07:27:22;;;;;;;51.00;32.83;;;4.60;99.90;;;;;;5140650;27;20433;-87
2020/12/06 07:29:48;;;;;;;54.00;32.77;;;4.60;99.90;;;;;;5139734;27;20991;-87
2020/12/06 07:32:15;;;;;;;52.20;30.87;;;4.60;99.90;;;;;;5142974;27;20846;-87
2020/12/06 07:34:41;;;;;;;50.57;30.07;;;4.60;99.90;;;;;;5138691;27;20448;-85
2020/12/06 07:37:08;;;;;;;52.43;31.80;;;4.60;99.90;;;;;;5146320;27;20436;-85
2020/12/06 07:39:41;;;;;;;49.07;29.30;;;4.70;99.90;;;;;;5141290;27;20544;-88
2020/12/06 07:42:07;;;;;;;49.70;30.23;;;4.70;99.90;;;;;;5139489;27;20493;-86
2020/12/06 07:44:45;;;;;;;48.53;30.43;;;4.70;99.90;;;;;;5145538;27;20443;-89
2020/12/06 07:47:11;;;;;;;51.73;30.80;;;4.70;99.90;;;;;;5142002;27;20431;-88
2020/12/06 07:49:49;;;;;;;49.43;28.53;;;4.70;99.90;;;;;;5139211;27;20480;-88
2020/12/06 07:52:17;;;;;;;49.43;30.37;;;4.70;99.90;;;;;;5134567;27;20853;-88
2020/12/06 07:54:55;;;;;;;46.93;29.03;;;4.70;99.90;;;;;;5131710;27;20507;-90
2020/12/06 07:57:47;;;;;;;50.73;29.87;;;4.70;99.90;;;;;;5134388;27;20497;-88
2020/12/06 08:00:16;;;;;;;56.73;29.77;;;4.70;99.90;;;;;;5140090;27;20466;-90
2020/12/06 08:02:45;;;;;;;55.20;31.70;;;4.70;99.90;;;;;;5143373;27;20933;-89
2020/12/06 08:05:18;;;;;;;47.70;27.70;;;4.70;99.90;;;;;;5129621;27;20437;-89
2020/12/06 08:07:47;;;;;;;50.67;28.23;;;4.70;99.90;;;;;;5140755;27;20432;-89
2020/12/06 08:10:15;;;;;;;53.10;30.77;;;4.70;99.90;;;;;;5133566;27;20872;-89
2020/12/06 08:12:44;;;;;;;59.43;31.87;;;4.70;99.90;;;;;;5137788;27;20421;-88
2020/12/06 08:15:11;;;;;;;52.03;27.17;;;4.70;99.90;;;;;;5137615;27;20439;-88
2020/12/06 08:17:48;;;;;;;57.87;32.07;;;4.80;99.90;;;;;;5140329;27;20441;-88
2020/12/06 08:20:16;;;;;;;58.13;30.30;;;4.80;99.90;;;;;;5130216;27;20475;-88
2020/12/06 08:22:49;;;;;;;56.03;29.30;;;4.70;99.90;;;;;;5125568;27;20428;-88
2020/12/06 08:25:16;;;;;;;47.90;26.73;;;4.80;99.90;;;;;;5122348;27;20508;-87
2020/12/06 08:27:45;;;;;;;46.17;27.00;;;4.80;99.90;;;;;;5124010;27;20436;-88
2020/12/06 08:30:13;;;;;;;56.50;27.27;;;4.80;99.90;;;;;;5124982;27;20914;-87
2020/12/06 08:32:39;;;;;;;50.27;27.63;;;4.80;99.90;;;;;;5126179;27;20440;-88
2020/12/06 08:35:06;;;;;;;48.47;26.37;;;4.90;99.90;;;;;;5122657;27;20856;-88
2020/12/06 08:37:35;;;;;;;49.00;27.10;;;4.90;99.90;;;;;;5126220;27;20442;-90
2020/12/06 08:40:03;;;;;;;46.17;24.07;;;5.00;99.90;;;;;;5126785;27;20459;-89
2020/12/06 08:42:30;;;;;;;44.17;22.40;;;5.00;99.90;;;;;;5125230;27;20547;-88
2020/12/06 08:44:58;;;;;;;49.20;24.50;;;5.00;99.90;;;;;;5124787;27;20867;-88
2020/12/06 08:47:26;;;;;;;53.30;25.27;;;5.10;99.90;;;;;;5124232;27;21109;-89
2020/12/06 08:50:08;;;;;;;44.80;24.07;;;5.10;99.90;;;;;;5125060;27;20480;-87
2020/12/06 08:52:34;;;;;;;53.30;25.53;;;5.10;99.90;;;;;;5122546;27;20422;-87
2020/12/06 08:55:02;;;;;;;49.07;26.70;;;5.10;99.90;;;;;;5125714;27;20473;-88
2020/12/06 08:57:28;;;;;;;49.00;25.97;;;5.00;99.90;;;;;;5127975;27;20443;-87
2020/12/06 08:59:54;;;;;;;47.70;24.80;;;5.00;99.90;;;;;;5133529;27;20472;-88
2020/12/06 09:02:23;;;;;;;49.57;24.30;;;5.00;99.90;;;;;;5139435;27;20420;-88
2020/12/06 09:04:49;;;;;;;50.33;26.17;;;5.00;99.90;;;;;;5134587;27;20429;-89
2020/12/06 09:07:16;;;;;;;52.37;28.70;;;5.10;99.90;;;;;;5126189;27;20926;-88
2020/12/06 09:09:42;;;;;;;52.37;25.80;;;5.20;99.90;;;;;;5124753;27;20609;-89
2020/12/06 09:12:09;;;;;;;45.57;25.17;;;5.20;99.90;;;;;;5128737;27;20460;-89
2020/12/06 09:14:37;;;;;;;50.83;27.10;;;5.20;99.90;;;;;;5127839;27;20500;-89
2020/12/06 09:17:04;;;;;;;50.67;26.37;;;5.20;99.90;;;;;;5128940;27;20429;-89
2020/12/06 09:19:30;;;;;;;49.90;24.27;;;5.30;99.90;;;;;;5129658;27;20953;-89
2020/12/06 09:21:56;;;;;;;48.43;26.20;;;5.30;99.90;;;;;;5128546;27;20814;-90
2020/12/06 09:24:23;;;;;;;43.60;25.40;;;5.30;99.90;;;;;;5125783;27;20934;-89
2020/12/06 09:26:50;;;;;;;48.53;25.00;;;5.40;99.90;;;;;;5126477;27;20429;-89
2020/12/06 09:29:16;;;;;;;51.00;26.83;;;5.40;99.90;;;;;;5118188;27;20897;-89
2020/12/06 09:31:42;;;;;;;42.97;23.17;;;5.40;99.90;;;;;;5115266;27;20445;-89
2020/12/06 09:34:08;;;;;;;53.97;26.53;;;5.40;99.90;;;;;;5125771;27;20432;-88
2020/12/06 09:36:40;;;;;;;48.20;26.50;;;5.50;99.90;;;;;;5120272;27;20446;-89
2020/12/06 09:39:06;;;;;;;49.93;27.07;;;5.50;99.90;;;;;;5123714;27;20460;-89
2020/12/06 09:41:33;;;;;;;46.30;25.30;;;5.60;99.90;;;;;;5125455;27;20441;-89
2020/12/06 09:44:04;;;;;;;42.40;22.63;;;5.60;99.90;;;;;;5125066;27;20436;-89
2020/12/06 09:46:30;;;;;;;46.17;25.60;;;5.60;99.90;;;;;;5120693;27;20863;-89
2020/12/06 09:48:57;;;;;;;40.10;21.97;;;5.60;99.90;;;;;;5123907;27;20530;-90
2020/12/06 09:51:23;;;;;;;32.40;19.07;;;5.60;99.90;;;;;;5125226;27;20432;-89
2020/12/06 09:53:49;;;;;;;43.20;21.30;;;5.60;99.90;;;;;;5125243;27;20451;-89
2020/12/06 09:56:15;;;;;;;35.30;20.57;;;5.50;99.90;;;;;;5123850;27;20445;-89
2020/12/06 09:58:43;;;;;;;31.47;19.17;;;5.50;99.90;;;;;;5125481;27;20461;-89
2020/12/06 10:01:09;;;;;;;37.33;19.80;;;5.60;99.90;;;;;;5126732;27;20437;-88
2020/12/06 10:03:37;;;;;;;30.50;19.23;;;5.70;99.90;;;;;;5131220;27;20438;-88
2020/12/06 10:06:03;;;;;;;33.77;22.20;;;5.70;99.90;;;;;;5125864;27;20537;-89
2020/12/06 10:08:29;;;;;;;34.67;22.23;;;5.80;99.90;;;;;;5131449;27;20468;-88
2020/12/06 10:10:55;;;;;;;29.70;17.23;;;5.80;99.90;;;;;;5119757;27;20437;-89
2020/12/06 10:13:25;;;;;;;28.00;17.13;;;5.80;99.90;;;;;;5129188;27;20428;-92
2020/12/06 10:15:53;;;;;;;28.60;17.07;;;5.90;99.90;;;;;;5135966;27;20452;-87
2020/12/06 10:18:19;;;;;;;27.83;17.03;;;5.80;99.90;;;;;;5138307;27;20437;-93
2020/12/06 10:20:45;;;;;;;25.83;16.10;;;5.80;99.90;;;;;;5131780;27;20449;-88
2020/12/06 10:23:11;;;;;;;28.57;16.83;;;5.90;99.90;;;;;;5120919;27;20430;-88
2020/12/06 10:25:38;;;;;;;24.47;15.00;;;5.90;99.90;;;;;;5123302;27;20441;-88
2020/12/06 10:28:04;;;;;;;25.37;16.93;;;5.90;99.90;;;;;;5124709;27;20983;-88
2020/12/06 10:30:30;;;;;;;25.40;14.93;;;5.90;99.90;;;;;;5122471;27;20525;-87
2020/12/06 10:32:57;;;;;;;23.90;16.03;;;5.90;99.90;;;;;;5121943;27;20445;-88
2020/12/06 10:35:23;;;;;;;26.13;16.03;;;5.90;99.90;;;;;;5123485;27;20463;-88
2020/12/06 10:37:50;;;;;;;24.70;14.80;;;5.80;99.90;;;;;;5121618;27;20446;-89
2020/12/06 10:40:16;;;;;;;24.37;16.60;;;5.90;99.90;;;;;;5123482;27;20459;-88
2020/12/06 10:42:42;;;;;;;22.90;14.70;;;5.90;99.90;;;;;;5119923;27;20548;-87
2020/12/06 10:45:08;;;;;;;22.37;14.43;;;5.90;99.90;;;;;;5123225;27;20440;-88
2020/12/06 10:47:34;;;;;;;29.77;17.53;;;5.90;99.90;;;;;;5122114;27;20441;-88
2020/12/06 10:50:01;;;;;;;25.30;15.97;;;5.90;99.90;;;;;;5122658;27;20489;-87
2020/12/06 10:52:27;;;;;;;27.03;16.57;;;6.00;99.90;;;;;;5119444;27;20449;-88
2020/12/06 10:54:55;;;;;;;23.50;16.30;;;6.00;99.90;;;;;;5125200;27;20434;-89
2020/12/06 10:57:21;;;;;;;24.67;16.53;;;6.00;99.90;;;;;;5122768;27;20452;-86
2020/12/06 10:59:47;;;;;;;24.77;16.27;;;6.00;99.90;;;;;;5123924;27;20973;-86
2020/12/06 11:02:13;;;;;;;25.57;14.90;;;6.10;99.90;;;;;;5120151;27;20465;-87
2020/12/06 11:04:39;;;;;;;22.93;15.67;;;6.10;99.90;;;;;;5122171;27;20440;-88
2020/12/06 11:07:06;;;;;;;19.53;14.73;;;6.20;99.90;;;;;;5122075;27;20448;-87
2020/12/06 11:09:32;;;;;;;21.23;14.00;;;6.20;99.90;;;;;;5123546;28;20552;-87
2020/12/06 11:11:58;;;;;;;22.07;15.20;;;6.20;99.90;;;;;;5122362;27;20453;-87
2020/12/06 11:14:25;;;;;;;22.97;16.13;;;6.30;99.90;;;;;;5121616;27;20434;-87
2020/12/06 11:16:52;;;;;;;21.00;15.53;;;6.30;99.90;;;;;;5122352;27;20437;-88
2020/12/06 11:19:18;;;;;;;23.43;16.43;;;6.30;99.90;;;;;;5119849;27;20457;-88
2020/12/06 11:21:44;;;;;;;23.63;14.87;;;6.30;99.90;;;;;;5119442;27;20439;-88
2020/12/06 11:24:11;;;;;;;23.57;15.73;;;6.30;99.90;;;;;;5123374;27;20440;-88
2020/12/06 11:26:38;;;;;;;19.93;14.60;;;6.30;99.90;;;;;;5123249;27;20438;-86
2020/12/06 11:29:04;;;;;;;22.43;17.07;;;6.30;99.90;;;;;;5129091;27;20476;-88
2020/12/06 11:31:30;;;;;;;23.83;16.07;;;6.30;99.90;;;;;;5137361;27;20440;-88
2020/12/06 11:33:57;;;;;;;23.47;16.00;;;6.30;99.90;;;;;;5126182;27;20868;-88
2020/12/06 11:36:23;;;;;;;26.30;16.37;;;6.30;99.90;;;;;;5131886;27;20438;-88
2020/12/06 11:38:49;;;;;;;23.50;17.50;;;6.30;99.90;;;;;;5124801;27;20546;-89
2020/12/06 11:41:16;;;;;;;21.23;16.27;;;6.30;99.90;;;;;;5120377;27;20446;-88
2020/12/06 11:43:42;;;;;;;25.40;16.37;;;6.30;99.90;;;;;;5124959;27;20794;-88
2020/12/06 11:46:08;;;;;;;22.67;16.67;;;6.30;99.90;;;;;;5123231;27;20451;-87
2020/12/06 11:48:35;;;;;;;29.80;19.43;;;6.30;99.90;;;;;;5125199;27;20524;-89
2020/12/06 11:51:01;;;;;;;30.67;20.20;;;6.40;99.90;;;;;;5124674;27;20452;-88
2020/12/06 11:53:27;;;;;;;21.33;16.70;;;6.40;99.90;;;;;;5118882;27;20437;-87
2020/12/06 11:55:53;;;;;;;22.27;16.70;;;6.40;99.90;;;;;;5124626;27;20426;-87
2020/12/06 11:58:20;;;;;;;25.67;15.67;;;6.40;99.90;;;;;;5128201;27;20434;-86
2020/12/06 12:00:46;;;;;;;21.20;15.17;;;6.30;99.90;;;;;;5126700;27;20440;-87
2020/12/06 12:03:13;;;;;;;21.70;15.70;;;6.30;99.90;;;;;;5127048;27;20437;-87
2020/12/06 12:05:39;;;;;;;25.97;16.70;;;6.30;99.90;;;;;;5126393;27;20485;-87
2020/12/06 12:08:05;;;;;;;26.50;17.70;;;6.30;99.90;;;;;;5127017;27;20452;-87
2020/12/06 12:10:32;;;;;;;26.37;16.70;;;6.40;99.90;;;;;;5126564;27;20469;-87
2020/12/06 12:12:59;;;;;;;24.50;16.57;;;6.40;99.90;;;;;;5122641;27;20445;-88
2020/12/06 12:15:26;;;;;;;24.40;15.70;;;6.40;99.90;;;;;;5127229;27;20444;-88
2020/12/06 12:17:52;;;;;;;29.60;17.63;;;6.40;99.90;;;;;;5126618;27;20436;-88
2020/12/06 12:20:18;;;;;;;24.83;17.10;;;6.40;99.90;;;;;;5125160;27;20449;-86
2020/12/06 12:22:44;;;;;;;24.07;16.57;;;6.40;99.90;;;;;;5124055;27;20437;-87
2020/12/06 12:25:10;;;;;;;27.93;16.63;;;6.40;99.90;;;;;;5125431;27;20544;-87
2020/12/06 12:27:37;;;;;;;22.53;16.63;;;6.40;99.90;;;;;;5124912;27;20445;-88
2020/12/06 12:30:04;;;;;;;25.33;17.47;;;6.50;99.90;;;;;;5126004;27;20480;-87
2020/12/06 12:32:31;;;;;;;23.33;16.90;;;6.50;99.90;;;;;;5122112;27;20444;-87
2020/12/06 12:34:58;;;;;;;21.97;15.43;;;6.50;99.90;;;;;;5128346;27;20449;-87
2020/12/06 12:37:24;;;;;;;20.77;14.60;;;6.60;99.90;;;;;;5142297;27;20433;-88
2020/12/06 12:39:51;;;;;;;23.77;16.33;;;6.60;99.90;;;;;;5129407;27;20468;-87